Portada
METAR-TAF:

METAR-TAF

Aeroports :

Damasc, Síria

latitud: 33-25N, longitud: 036-31E, altitud: 608 m

Observació

L'informe es va fer fa 14 hores i 36 minuts, a les 23:00 UTC
Vent 7 kt del Oest/Sud-Oest
Temperatura 8°C
Humitat 81%
Pressió 1016 hPa
Visibilitat 10 km o més
sense núvols per sota de 1500 mi sense presència de cumulonimbus.

METAR: OSDI 062300Z 25007KT CAVOK 08/05 Q1016

Hora: 16:36 (13:36 UTC)

Pronòstic

L'informe es va fer fa 15 hores i 36 minuts, a les 22:00 UTC
Pronòstic vàlid del 07 a les 00 UTC al 08 a les 06 UTC
Vent 3 kt amb direcció variable
Visibilitat 10 km o més
sense núvols per sota de 1500 mi sense presència de cumulonimbus.
Temporalment
l' 07 a les 10 UTC al 07 a les 20 UTC
Vent 10 kt del Sud-Oest
Visibilitat 10 km o més
Escasses núvols a una alçada de 3000 ft

TAF: OSDI 062200Z 0700/0806 VRB03KT CAVOK TEMPO 0710/0720 22010KT 9999 FEW030

Observacions i pronòstics meteorològics de més de 4000 aeroports (METAR i TAF).

Les estacions disponibles són els punts grocs i vermells al mapa.

Posi el ratolí al punt desitjat per veure el nom de l'estació.

Feu clic per veure les observacions i els pronòstics meteorològics.

Per canviar el mapa: feu clic els botons verds amb una creu de color negre per apropar; al botó verd amb un guió per allunyar la imatge; o en les fletxes verdes per a mapes adjacents.


METAR-TAF: